sensor_id;sensor_type;location;lat;lon;timestamp;P1;durP1;ratioP1;P2;durP2;ratioP2
75025;SDS011;63591;50.080;8.286;2023-03-01T00:01:49;10.68;;;5.70;;
75025;SDS011;63591;50.080;8.286;2023-03-01T00:04:14;9.18;;;5.40;;
75025;SDS011;63591;50.080;8.286;2023-03-01T00:06:41;10.30;;;4.90;;
75025;SDS011;63591;50.080;8.286;2023-03-01T00:09:07;9.18;;;5.20;;
75025;SDS011;63591;50.080;8.286;2023-03-01T00:11:33;10.53;;;5.10;;
75025;SDS011;63591;50.080;8.286;2023-03-01T00:14:00;9.67;;;4.93;;
75025;SDS011;63591;50.080;8.286;2023-03-01T00:16:32;9.07;;;4.70;;
75025;SDS011;63591;50.080;8.286;2023-03-01T00:18:59;11.32;;;5.50;;
75025;SDS011;63591;50.080;8.286;2023-03-01T00:21:24;10.40;;;5.27;;
75025;SDS011;63591;50.080;8.286;2023-03-01T00:23:51;9.75;;;5.60;;
75025;SDS011;63591;50.080;8.286;2023-03-01T00:26:17;10.73;;;5.45;;
75025;SDS011;63591;50.080;8.286;2023-03-01T00:28:45;8.63;;;4.80;;
75025;SDS011;63591;50.080;8.286;2023-03-01T00:31:12;8.95;;;5.18;;
75025;SDS011;63591;50.080;8.286;2023-03-01T00:33:38;10.02;;;5.30;;
75025;SDS011;63591;50.080;8.286;2023-03-01T00:36:04;10.50;;;5.53;;
75025;SDS011;63591;50.080;8.286;2023-03-01T00:38:30;10.55;;;5.80;;
75025;SDS011;63591;50.080;8.286;2023-03-01T00:40:55;10.43;;;5.60;;
75025;SDS011;63591;50.080;8.286;2023-03-01T00:43:27;9.13;;;5.63;;
75025;SDS011;63591;50.080;8.286;2023-03-01T00:45:52;11.03;;;5.30;;
75025;SDS011;63591;50.080;8.286;2023-03-01T00:48:17;9.70;;;5.40;;
75025;SDS011;63591;50.080;8.286;2023-03-01T00:50:43;10.70;;;5.40;;
75025;SDS011;63591;50.080;8.286;2023-03-01T00:53:08;9.37;;;5.80;;
75025;SDS011;63591;50.080;8.286;2023-03-01T00:55:33;10.10;;;5.80;;
75025;SDS011;63591;50.080;8.286;2023-03-01T00:58:01;9.50;;;5.43;;
75025;SDS011;63591;50.080;8.286;2023-03-01T01:00:26;9.97;;;5.50;;
75025;SDS011;63591;50.080;8.286;2023-03-01T01:02:52;9.90;;;5.68;;
75025;SDS011;63591;50.080;8.286;2023-03-01T01:05:18;10.53;;;5.77;;
75025;SDS011;63591;50.080;8.286;2023-03-01T01:07:45;10.65;;;5.95;;
75025;SDS011;63591;50.080;8.286;2023-03-01T01:10:11;10.70;;;6.03;;
75025;SDS011;63591;50.080;8.286;2023-03-01T01:12:41;10.93;;;5.95;;
75025;SDS011;63591;50.080;8.286;2023-03-01T01:15:08;10.10;;;5.78;;
75025;SDS011;63591;50.080;8.286;2023-03-01T01:17:33;9.90;;;6.07;;
75025;SDS011;63591;50.080;8.286;2023-03-01T01:19:58;11.27;;;6.03;;
75025;SDS011;63591;50.080;8.286;2023-03-01T01:22:24;12.10;;;6.30;;
75025;SDS011;63591;50.080;8.286;2023-03-01T01:24:49;11.30;;;6.20;;
75025;SDS011;63591;50.080;8.286;2023-03-01T01:27:14;11.50;;;6.47;;
75025;SDS011;63591;50.080;8.286;2023-03-01T01:29:40;9.47;;;5.80;;
75025;SDS011;63591;50.080;8.286;2023-03-01T01:32:06;9.80;;;5.38;;
75025;SDS011;63591;50.080;8.286;2023-03-01T01:34:32;10.87;;;5.80;;
75025;SDS011;63591;50.080;8.286;2023-03-01T01:36:57;10.03;;;5.60;;
75025;SDS011;63591;50.080;8.286;2023-03-01T01:39:27;9.98;;;6.20;;
75025;SDS011;63591;50.080;8.286;2023-03-01T01:41:52;11.73;;;5.80;;
75025;SDS011;63591;50.080;8.286;2023-03-01T01:46:55;10.82;;;6.45;;
75025;SDS011;63591;50.080;8.286;2023-03-01T01:49:28;10.13;;;5.38;;
75025;SDS011;63591;50.080;8.286;2023-03-01T01:51:59;9.45;;;5.80;;
75025;SDS011;63591;50.080;8.286;2023-03-01T01:54:40;10.77;;;5.35;;
75025;SDS011;63591;50.080;8.286;2023-03-01T01:57:14;10.27;;;5.63;;
75025;SDS011;63591;50.080;8.286;2023-03-01T01:59:45;10.52;;;5.75;;
75025;SDS011;63591;50.080;8.286;2023-03-01T02:02:17;10.80;;;5.95;;
75025;SDS011;63591;50.080;8.286;2023-03-01T02:04:43;10.38;;;6.07;;
75025;SDS011;63591;50.080;8.286;2023-03-01T02:07:13;11.00;;;5.93;;
75025;SDS011;63591;50.080;8.286;2023-03-01T02:09:42;10.45;;;5.80;;
75025;SDS011;63591;50.080;8.286;2023-03-01T02:15:20;10.82;;;5.88;;
75025;SDS011;63591;50.080;8.286;2023-03-01T02:17:47;10.18;;;6.03;;
75025;SDS011;63591;50.080;8.286;2023-03-01T02:20:18;10.77;;;5.85;;
75025;SDS011;63591;50.080;8.286;2023-03-01T02:22:51;10.40;;;5.97;;
75025;SDS011;63591;50.080;8.286;2023-03-01T02:25:22;10.20;;;5.93;;
75025;SDS011;63591;50.080;8.286;2023-03-01T02:28:25;10.93;;;6.05;;
75025;SDS011;63591;50.080;8.286;2023-03-01T02:30:48;12.45;;;6.20;;
75025;SDS011;63591;50.080;8.286;2023-03-01T02:33:34;9.95;;;5.65;;
75025;SDS011;63591;50.080;8.286;2023-03-01T02:36:11;10.85;;;6.03;;
75025;SDS011;63591;50.080;8.286;2023-03-01T02:38:40;10.45;;;5.82;;
75025;SDS011;63591;50.080;8.286;2023-03-01T02:41:06;10.02;;;6.07;;
75025;SDS011;63591;50.080;8.286;2023-03-01T02:43:33;10.05;;;6.30;;
75025;SDS011;63591;50.080;8.286;2023-03-01T02:46:04;10.70;;;6.05;;
75025;SDS011;63591;50.080;8.286;2023-03-01T02:48:41;9.68;;;6.13;;
75025;SDS011;63591;50.080;8.286;2023-03-01T02:54:05;11.07;;;6.40;;
75025;SDS011;63591;50.080;8.286;2023-03-01T02:56:52;12.30;;;5.88;;
75025;SDS011;63591;50.080;8.286;2023-03-01T02:59:19;10.90;;;5.93;;
75025;SDS011;63591;50.080;8.286;2023-03-01T03:01:47;12.45;;;6.40;;
75025;SDS011;63591;50.080;8.286;2023-03-01T03:04:14;11.73;;;6.33;;
75025;SDS011;63591;50.080;8.286;2023-03-01T03:06:42;9.90;;;6.35;;
75025;SDS011;63591;50.080;8.286;2023-03-01T03:09:09;11.40;;;6.30;;
75025;SDS011;63591;50.080;8.286;2023-03-01T03:11:34;11.80;;;6.00;;
75025;SDS011;63591;50.080;8.286;2023-03-01T03:14:01;11.38;;;6.30;;
75025;SDS011;63591;50.080;8.286;2023-03-01T03:16:27;9.93;;;6.20;;
75025;SDS011;63591;50.080;8.286;2023-03-01T03:18:54;11.38;;;6.38;;
75025;SDS011;63591;50.080;8.286;2023-03-01T03:21:20;10.53;;;6.33;;
75025;SDS011;63591;50.080;8.286;2023-03-01T03:23:45;10.20;;;5.83;;
75025;SDS011;63591;50.080;8.286;2023-03-01T03:26:10;10.90;;;5.93;;
75025;SDS011;63591;50.080;8.286;2023-03-01T03:28:38;12.15;;;6.60;;
75025;SDS011;63591;50.080;8.286;2023-03-01T03:31:05;11.82;;;6.40;;
75025;SDS011;63591;50.080;8.286;2023-03-01T03:33:32;11.02;;;6.40;;
75025;SDS011;63591;50.080;8.286;2023-03-01T03:35:57;12.05;;;6.45;;
75025;SDS011;63591;50.080;8.286;2023-03-01T03:38:23;11.60;;;6.67;;
75025;SDS011;63591;50.080;8.286;2023-03-01T03:40:49;11.35;;;6.50;;
75025;SDS011;63591;50.080;8.286;2023-03-01T03:43:33;11.52;;;6.47;;
75025;SDS011;63591;50.080;8.286;2023-03-01T03:46:00;10.15;;;6.13;;
75025;SDS011;63591;50.080;8.286;2023-03-01T03:48:30;11.30;;;6.70;;
75025;SDS011;63591;50.080;8.286;2023-03-01T03:50:56;11.68;;;6.28;;
75025;SDS011;63591;50.080;8.286;2023-03-01T03:53:22;12.43;;;6.70;;
75025;SDS011;63591;50.080;8.286;2023-03-01T03:55:49;12.52;;;6.63;;
75025;SDS011;63591;50.080;8.286;2023-03-01T03:58:14;10.93;;;6.40;;
75025;SDS011;63591;50.080;8.286;2023-03-01T04:00:42;11.07;;;6.22;;
75025;SDS011;63591;50.080;8.286;2023-03-01T04:03:09;11.47;;;6.37;;
75025;SDS011;63591;50.080;8.286;2023-03-01T04:05:35;11.32;;;6.57;;
75025;SDS011;63591;50.080;8.286;2023-03-01T04:08:01;10.52;;;6.30;;
75025;SDS011;63591;50.080;8.286;2023-03-01T04:10:31;10.87;;;6.20;;
75025;SDS011;63591;50.080;8.286;2023-03-01T04:13:05;12.25;;;6.50;;
75025;SDS011;63591;50.080;8.286;2023-03-01T04:15:32;10.60;;;6.35;;
75025;SDS011;63591;50.080;8.286;2023-03-01T04:17:58;11.60;;;7.20;;
75025;SDS011;63591;50.080;8.286;2023-03-01T04:20:25;11.63;;;6.50;;
75025;SDS011;63591;50.080;8.286;2023-03-01T04:23:02;11.35;;;6.25;;
75025;SDS011;63591;50.080;8.286;2023-03-01T04:25:42;11.25;;;6.60;;
75025;SDS011;63591;50.080;8.286;2023-03-01T04:28:11;11.23;;;6.63;;
75025;SDS011;63591;50.080;8.286;2023-03-01T04:30:37;11.93;;;6.28;;
75025;SDS011;63591;50.080;8.286;2023-03-01T04:33:06;11.45;;;6.30;;
75025;SDS011;63591;50.080;8.286;2023-03-01T04:35:33;12.00;;;6.57;;
75025;SDS011;63591;50.080;8.286;2023-03-01T04:38:00;11.13;;;6.40;;
75025;SDS011;63591;50.080;8.286;2023-03-01T04:40:25;11.57;;;6.73;;
75025;SDS011;63591;50.080;8.286;2023-03-01T04:42:51;10.73;;;6.47;;
75025;SDS011;63591;50.080;8.286;2023-03-01T04:45:16;12.20;;;6.77;;
75025;SDS011;63591;50.080;8.286;2023-03-01T04:47:42;12.53;;;7.00;;
75025;SDS011;63591;50.080;8.286;2023-03-01T04:50:13;14.02;;;7.07;;
75025;SDS011;63591;50.080;8.286;2023-03-01T04:52:40;13.25;;;7.38;;
75025;SDS011;63591;50.080;8.286;2023-03-01T04:55:07;12.20;;;7.07;;
75025;SDS011;63591;50.080;8.286;2023-03-01T04:57:33;11.98;;;7.07;;
75025;SDS011;63591;50.080;8.286;2023-03-01T04:59:58;11.03;;;6.60;;
75025;SDS011;63591;50.080;8.286;2023-03-01T05:02:23;13.00;;;6.83;;
75025;SDS011;63591;50.080;8.286;2023-03-01T05:04:49;10.73;;;6.53;;
75025;SDS011;63591;50.080;8.286;2023-03-01T05:07:14;12.38;;;7.15;;
75025;SDS011;63591;50.080;8.286;2023-03-01T05:09:45;12.97;;;6.83;;
75025;SDS011;63591;50.080;8.286;2023-03-01T05:12:11;12.70;;;7.18;;
75025;SDS011;63591;50.080;8.286;2023-03-01T05:14:36;12.68;;;6.93;;
75025;SDS011;63591;50.080;8.286;2023-03-01T05:17:03;11.20;;;6.70;;
75025;SDS011;63591;50.080;8.286;2023-03-01T05:19:29;11.98;;;7.05;;
75025;SDS011;63591;50.080;8.286;2023-03-01T05:21:55;13.25;;;7.38;;
75025;SDS011;63591;50.080;8.286;2023-03-01T05:24:28;12.30;;;7.00;;
75025;SDS011;63591;50.080;8.286;2023-03-01T05:26:55;12.35;;;6.85;;
75025;SDS011;63591;50.080;8.286;2023-03-01T05:29:21;11.43;;;6.60;;
75025;SDS011;63591;50.080;8.286;2023-03-01T05:31:53;13.43;;;7.32;;
75025;SDS011;63591;50.080;8.286;2023-03-01T05:34:26;13.00;;;7.60;;
75025;SDS011;63591;50.080;8.286;2023-03-01T05:36:53;13.27;;;7.13;;
75025;SDS011;63591;50.080;8.286;2023-03-01T05:39:20;13.10;;;7.50;;
75025;SDS011;63591;50.080;8.286;2023-03-01T05:41:52;13.60;;;7.00;;
75025;SDS011;63591;50.080;8.286;2023-03-01T05:44:18;13.85;;;7.65;;
75025;SDS011;63591;50.080;8.286;2023-03-01T05:46:43;13.30;;;7.70;;
75025;SDS011;63591;50.080;8.286;2023-03-01T05:49:09;12.93;;;7.18;;
75025;SDS011;63591;50.080;8.286;2023-03-01T05:51:35;14.68;;;7.63;;
75025;SDS011;63591;50.080;8.286;2023-03-01T05:54:00;12.60;;;6.63;;
75025;SDS011;63591;50.080;8.286;2023-03-01T05:56:25;13.13;;;7.20;;
75025;SDS011;63591;50.080;8.286;2023-03-01T05:58:51;12.37;;;7.30;;
75025;SDS011;63591;50.080;8.286;2023-03-01T06:01:16;12.17;;;7.20;;
75025;SDS011;63591;50.080;8.286;2023-03-01T06:03:42;11.40;;;6.87;;
75025;SDS011;63591;50.080;8.286;2023-03-01T06:06:07;12.98;;;7.25;;
75025;SDS011;63591;50.080;8.286;2023-03-01T06:08:32;12.37;;;7.10;;
75025;SDS011;63591;50.080;8.286;2023-03-01T06:10:58;13.53;;;7.00;;
75025;SDS011;63591;50.080;8.286;2023-03-01T06:13:23;13.30;;;7.50;;
75025;SDS011;63591;50.080;8.286;2023-03-01T06:15:49;14.35;;;7.60;;
75025;SDS011;63591;50.080;8.286;2023-03-01T06:18:15;13.10;;;7.97;;
75025;SDS011;63591;50.080;8.286;2023-03-01T06:20:40;13.60;;;7.77;;
75025;SDS011;63591;50.080;8.286;2023-03-01T06:23:05;14.40;;;8.57;;
75025;SDS011;63591;50.080;8.286;2023-03-01T06:25:31;13.32;;;7.85;;
75025;SDS011;63591;50.080;8.286;2023-03-01T06:27:56;13.73;;;7.93;;
75025;SDS011;63591;50.080;8.286;2023-03-01T06:30:22;12.77;;;7.73;;
75025;SDS011;63591;50.080;8.286;2023-03-01T06:32:49;13.52;;;7.97;;
75025;SDS011;63591;50.080;8.286;2023-03-01T06:35:15;13.33;;;7.67;;
75025;SDS011;63591;50.080;8.286;2023-03-01T06:37:45;13.30;;;7.63;;
75025;SDS011;63591;50.080;8.286;2023-03-01T06:40:11;14.10;;;8.10;;
75025;SDS011;63591;50.080;8.286;2023-03-01T06:42:39;12.93;;;7.30;;
75025;SDS011;63591;50.080;8.286;2023-03-01T06:45:07;13.40;;;7.85;;
75025;SDS011;63591;50.080;8.286;2023-03-01T06:47:33;12.45;;;7.75;;
75025;SDS011;63591;50.080;8.286;2023-03-01T06:49:59;12.13;;;7.23;;
75025;SDS011;63591;50.080;8.286;2023-03-01T06:52:25;12.55;;;7.32;;
75025;SDS011;63591;50.080;8.286;2023-03-01T06:54:50;12.10;;;7.13;;
75025;SDS011;63591;50.080;8.286;2023-03-01T06:57:16;13.63;;;7.63;;
75025;SDS011;63591;50.080;8.286;2023-03-01T06:59:41;13.30;;;7.22;;
75025;SDS011;63591;50.080;8.286;2023-03-01T07:02:09;11.83;;;6.57;;
75025;SDS011;63591;50.080;8.286;2023-03-01T07:04:36;11.43;;;6.55;;
75025;SDS011;63591;50.080;8.286;2023-03-01T07:07:01;12.73;;;6.87;;
75025;SDS011;63591;50.080;8.286;2023-03-01T07:09:26;12.07;;;6.80;;
75025;SDS011;63591;50.080;8.286;2023-03-01T07:11:52;11.60;;;6.70;;
75025;SDS011;63591;50.080;8.286;2023-03-01T07:14:17;10.87;;;6.27;;
75025;SDS011;63591;50.080;8.286;2023-03-01T07:16:44;11.88;;;6.65;;
75025;SDS011;63591;50.080;8.286;2023-03-01T07:19:09;11.77;;;6.53;;
75025;SDS011;63591;50.080;8.286;2023-03-01T07:21:35;11.17;;;6.47;;
75025;SDS011;63591;50.080;8.286;2023-03-01T07:24:03;11.30;;;6.32;;
75025;SDS011;63591;50.080;8.286;2023-03-01T07:26:30;11.95;;;6.30;;
75025;SDS011;63591;50.080;8.286;2023-03-01T07:28:55;12.07;;;6.85;;
75025;SDS011;63591;50.080;8.286;2023-03-01T07:31:24;10.43;;;6.38;;
75025;SDS011;63591;50.080;8.286;2023-03-01T07:33:50;10.88;;;6.38;;
75025;SDS011;63591;50.080;8.286;2023-03-01T07:36:15;11.20;;;6.00;;
75025;SDS011;63591;50.080;8.286;2023-03-01T07:38:40;9.93;;;5.97;;
75025;SDS011;63591;50.080;8.286;2023-03-01T07:41:05;10.73;;;6.80;;
75025;SDS011;63591;50.080;8.286;2023-03-01T07:43:31;11.43;;;6.33;;
75025;SDS011;63591;50.080;8.286;2023-03-01T07:46:00;12.32;;;6.30;;
75025;SDS011;63591;50.080;8.286;2023-03-01T07:48:29;13.33;;;6.60;;
75025;SDS011;63591;50.080;8.286;2023-03-01T07:50:59;12.50;;;6.80;;
75025;SDS011;63591;50.080;8.286;2023-03-01T07:53:28;11.68;;;6.60;;
75025;SDS011;63591;50.080;8.286;2023-03-01T07:56:09;10.82;;;6.50;;
75025;SDS011;63591;50.080;8.286;2023-03-01T07:58:37;10.40;;;5.93;;
75025;SDS011;63591;50.080;8.286;2023-03-01T08:01:05;10.80;;;6.20;;
75025;SDS011;63591;50.080;8.286;2023-03-01T08:03:32;12.38;;;6.40;;
75025;SDS011;63591;50.080;8.286;2023-03-01T08:06:04;11.23;;;6.32;;
75025;SDS011;63591;50.080;8.286;2023-03-01T08:08:32;12.98;;;6.35;;
75025;SDS011;63591;50.080;8.286;2023-03-01T08:10:58;9.90;;;6.00;;
75025;SDS011;63591;50.080;8.286;2023-03-01T08:13:25;10.97;;;5.97;;
75025;SDS011;63591;50.080;8.286;2023-03-01T08:15:51;11.57;;;6.07;;
75025;SDS011;63591;50.080;8.286;2023-03-01T08:18:17;10.68;;;6.10;;
75025;SDS011;63591;50.080;8.286;2023-03-01T08:20:44;12.13;;;6.55;;
75025;SDS011;63591;50.080;8.286;2023-03-01T08:23:09;12.70;;;6.40;;
75025;SDS011;63591;50.080;8.286;2023-03-01T08:25:35;12.37;;;6.70;;
75025;SDS011;63591;50.080;8.286;2023-03-01T08:28:00;12.70;;;6.77;;
75025;SDS011;63591;50.080;8.286;2023-03-01T08:30:25;14.03;;;6.53;;
75025;SDS011;63591;50.080;8.286;2023-03-01T08:32:51;12.97;;;6.57;;
75025;SDS011;63591;50.080;8.286;2023-03-01T08:35:17;11.55;;;6.25;;
75025;SDS011;63591;50.080;8.286;2023-03-01T08:37:42;13.77;;;7.15;;
75025;SDS011;63591;50.080;8.286;2023-03-01T08:40:08;11.95;;;6.68;;
75025;SDS011;63591;50.080;8.286;2023-03-01T08:42:35;12.02;;;6.53;;
75025;SDS011;63591;50.080;8.286;2023-03-01T08:45:01;11.20;;;6.18;;
75025;SDS011;63591;50.080;8.286;2023-03-01T08:47:27;13.13;;;6.47;;
75025;SDS011;63591;50.080;8.286;2023-03-01T08:49:52;12.40;;;6.70;;
75025;SDS011;63591;50.080;8.286;2023-03-01T08:52:19;12.47;;;6.73;;
75025;SDS011;63591;50.080;8.286;2023-03-01T08:54:44;12.55;;;6.30;;
75025;SDS011;63591;50.080;8.286;2023-03-01T08:57:10;11.63;;;6.60;;
75025;SDS011;63591;50.080;8.286;2023-03-01T08:59:35;10.43;;;6.40;;
75025;SDS011;63591;50.080;8.286;2023-03-01T09:02:02;12.82;;;6.78;;
75025;SDS011;63591;50.080;8.286;2023-03-01T09:04:29;11.77;;;6.88;;
75025;SDS011;63591;50.080;8.286;2023-03-01T09:06:54;11.53;;;6.10;;
75025;SDS011;63591;50.080;8.286;2023-03-01T09:09:20;11.77;;;6.28;;
75025;SDS011;63591;50.080;8.286;2023-03-01T09:11:45;10.20;;;6.03;;
75025;SDS011;63591;50.080;8.286;2023-03-01T09:14:11;13.43;;;6.40;;
75025;SDS011;63591;50.080;8.286;2023-03-01T09:16:38;10.77;;;6.13;;
75025;SDS011;63591;50.080;8.286;2023-03-01T09:19:04;11.98;;;6.82;;
75025;SDS011;63591;50.080;8.286;2023-03-01T09:21:30;12.07;;;6.80;;
75025;SDS011;63591;50.080;8.286;2023-03-01T09:23:55;12.47;;;6.43;;
75025;SDS011;63591;50.080;8.286;2023-03-01T09:26:22;11.13;;;6.30;;
75025;SDS011;63591;50.080;8.286;2023-03-01T09:28:49;11.88;;;6.60;;
75025;SDS011;63591;50.080;8.286;2023-03-01T09:31:16;11.98;;;6.63;;
75025;SDS011;63591;50.080;8.286;2023-03-01T09:33:44;13.50;;;6.93;;
75025;SDS011;63591;50.080;8.286;2023-03-01T09:36:13;12.47;;;6.70;;
75025;SDS011;63591;50.080;8.286;2023-03-01T09:38:40;12.75;;;6.68;;
75025;SDS011;63591;50.080;8.286;2023-03-01T09:41:18;12.73;;;6.90;;
75025;SDS011;63591;50.080;8.286;2023-03-01T09:46:43;12.13;;;6.93;;
75025;SDS011;63591;50.080;8.286;2023-03-01T09:49:21;10.38;;;6.00;;
75025;SDS011;63591;50.080;8.286;2023-03-01T09:54:26;12.35;;;6.88;;
75025;SDS011;63591;50.080;8.286;2023-03-01T09:56:58;13.05;;;7.47;;
75025;SDS011;63591;50.080;8.286;2023-03-01T09:59:48;14.10;;;7.50;;
75025;SDS011;63591;50.080;8.286;2023-03-01T10:05:29;13.40;;;7.63;;
75025;SDS011;63591;50.080;8.286;2023-03-01T10:10:34;14.57;;;7.13;;
75025;SDS011;63591;50.080;8.286;2023-03-01T10:13:04;13.55;;;7.50;;
75025;SDS011;63591;50.080;8.286;2023-03-01T10:15:43;13.63;;;7.18;;
75025;SDS011;63591;50.080;8.286;2023-03-01T10:18:13;13.05;;;7.05;;
75025;SDS011;63591;50.080;8.286;2023-03-01T10:20:46;14.23;;;7.25;;
75025;SDS011;63591;50.080;8.286;2023-03-01T10:23:17;13.45;;;7.47;;
75025;SDS011;63591;50.080;8.286;2023-03-01T10:25:44;14.57;;;7.40;;
75025;SDS011;63591;50.080;8.286;2023-03-01T10:28:34;12.93;;;7.57;;
75025;SDS011;63591;50.080;8.286;2023-03-01T10:31:12;12.70;;;7.40;;
75025;SDS011;63591;50.080;8.286;2023-03-01T10:33:40;12.25;;;7.00;;
75025;SDS011;63591;50.080;8.286;2023-03-01T10:36:06;11.30;;;6.68;;
75025;SDS011;63591;50.080;8.286;2023-03-01T10:38:46;12.88;;;7.05;;
75025;SDS011;63591;50.080;8.286;2023-03-01T10:41:14;12.82;;;7.10;;
75025;SDS011;63591;50.080;8.286;2023-03-01T10:46:21;12.33;;;7.20;;
75025;SDS011;63591;50.080;8.286;2023-03-01T10:49:18;11.65;;;7.05;;
75025;SDS011;63591;50.080;8.286;2023-03-01T10:51:47;13.00;;;7.10;;
75025;SDS011;63591;50.080;8.286;2023-03-01T10:54:23;13.25;;;6.93;;
75025;SDS011;63591;50.080;8.286;2023-03-01T10:56:53;12.68;;;6.90;;
75025;SDS011;63591;50.080;8.286;2023-03-01T11:04:27;14.13;;;7.30;;
75025;SDS011;63591;50.080;8.286;2023-03-01T11:06:59;13.07;;;7.13;;
75025;SDS011;63591;50.080;8.286;2023-03-01T11:09:25;12.15;;;7.22;;
75025;SDS011;63591;50.080;8.286;2023-03-01T11:11:55;12.40;;;7.05;;
75025;SDS011;63591;50.080;8.286;2023-03-01T11:14:22;13.05;;;6.72;;
75025;SDS011;63591;50.080;8.286;2023-03-01T11:16:58;10.83;;;6.53;;
75025;SDS011;63591;50.080;8.286;2023-03-01T11:19:25;13.13;;;6.72;;
75025;SDS011;63591;50.080;8.286;2023-03-01T11:24:46;12.52;;;7.10;;
75025;SDS011;63591;50.080;8.286;2023-03-01T11:30:01;11.88;;;6.82;;
75025;SDS011;63591;50.080;8.286;2023-03-01T11:32:34;10.65;;;6.55;;
75025;SDS011;63591;50.080;8.286;2023-03-01T11:35:10;12.60;;;7.00;;
75025;SDS011;63591;50.080;8.286;2023-03-01T11:37:51;13.13;;;6.60;;
75025;SDS011;63591;50.080;8.286;2023-03-01T11:40:29;13.07;;;6.88;;
75025;SDS011;63591;50.080;8.286;2023-03-01T11:43:16;10.93;;;6.00;;
75025;SDS011;63591;50.080;8.286;2023-03-01T12:02:46;9.38;;;5.60;;
75025;SDS011;63591;50.080;8.286;2023-03-01T12:05:39;10.38;;;5.80;;
75025;SDS011;63591;50.080;8.286;2023-03-01T12:08:39;10.38;;;5.53;;
75025;SDS011;63591;50.080;8.286;2023-03-01T12:11:27;11.40;;;5.53;;
75025;SDS011;63591;50.080;8.286;2023-03-01T12:14:17;9.82;;;5.35;;
75025;SDS011;63591;50.080;8.286;2023-03-01T12:22:17;9.90;;;5.20;;
75025;SDS011;63591;50.080;8.286;2023-03-01T12:46:58;9.40;;;5.10;;
75025;SDS011;63591;50.080;8.286;2023-03-01T12:49:38;8.43;;;4.70;;
75025;SDS011;63591;50.080;8.286;2023-03-01T12:54:42;9.52;;;5.05;;
75025;SDS011;63591;50.080;8.286;2023-03-01T13:03:18;9.38;;;4.80;;
75025;SDS011;63591;50.080;8.286;2023-03-01T13:05:57;8.63;;;4.38;;
75025;SDS011;63591;50.080;8.286;2023-03-01T13:11:17;9.52;;;4.50;;
75025;SDS011;63591;50.080;8.286;2023-03-01T13:13:45;9.50;;;4.50;;
75025;SDS011;63591;50.080;8.286;2023-03-01T13:19:12;8.63;;;4.43;;
75025;SDS011;63591;50.080;8.286;2023-03-01T13:21:41;9.50;;;4.65;;
75025;SDS011;63591;50.080;8.286;2023-03-01T13:37:42;8.10;;;4.20;;
75025;SDS011;63591;50.080;8.286;2023-03-01T13:42:46;8.85;;;4.40;;
75025;SDS011;63591;50.080;8.286;2023-03-01T13:45:17;9.38;;;4.53;;
75025;SDS011;63591;50.080;8.286;2023-03-01T13:47:46;8.10;;;4.32;;
75025;SDS011;63591;50.080;8.286;2023-03-01T13:50:21;8.00;;;3.83;;
75025;SDS011;63591;50.080;8.286;2023-03-01T13:53:23;7.93;;;4.30;;
75025;SDS011;63591;50.080;8.286;2023-03-01T13:55:46;7.35;;;4.13;;
75025;SDS011;63591;50.080;8.286;2023-03-01T14:00:54;9.07;;;4.25;;
75025;SDS011;63591;50.080;8.286;2023-03-01T14:03:30;8.18;;;4.38;;
75025;SDS011;63591;50.080;8.286;2023-03-01T14:05:59;8.18;;;3.95;;
75025;SDS011;63591;50.080;8.286;2023-03-01T14:08:31;8.75;;;4.05;;
75025;SDS011;63591;50.080;8.286;2023-03-01T14:19:18;8.82;;;4.10;;
75025;SDS011;63591;50.080;8.286;2023-03-01T14:21:58;8.15;;;3.92;;
75025;SDS011;63591;50.080;8.286;2023-03-01T14:24:56;9.68;;;4.30;;
75025;SDS011;63591;50.080;8.286;2023-03-01T14:27:26;9.05;;;4.70;;
75025;SDS011;63591;50.080;8.286;2023-03-01T14:29:54;8.18;;;4.00;;
75025;SDS011;63591;50.080;8.286;2023-03-01T14:32:28;11.07;;;4.15;;
75025;SDS011;63591;50.080;8.286;2023-03-01T14:34:56;10.07;;;4.30;;
75025;SDS011;63591;50.080;8.286;2023-03-01T14:37:31;7.90;;;3.97;;
75025;SDS011;63591;50.080;8.286;2023-03-01T14:39:58;8.15;;;4.20;;
75025;SDS011;63591;50.080;8.286;2023-03-01T14:42:27;11.63;;;4.60;;
75025;SDS011;63591;50.080;8.286;2023-03-01T14:44:55;12.55;;;5.13;;
75025;SDS011;63591;50.080;8.286;2023-03-01T14:47:27;11.15;;;5.03;;
75025;SDS011;63591;50.080;8.286;2023-03-01T14:52:47;12.43;;;4.45;;
75025;SDS011;63591;50.080;8.286;2023-03-01T14:55:19;10.00;;;4.43;;
75025;SDS011;63591;50.080;8.286;2023-03-01T14:57:48;9.98;;;4.60;;
75025;SDS011;63591;50.080;8.286;2023-03-01T15:00:22;9.75;;;4.40;;
75025;SDS011;63591;50.080;8.286;2023-03-01T15:02:51;9.45;;;4.50;;
75025;SDS011;63591;50.080;8.286;2023-03-01T15:05:18;10.55;;;4.80;;
75025;SDS011;63591;50.080;8.286;2023-03-01T15:08:06;9.48;;;4.57;;
75025;SDS011;63591;50.080;8.286;2023-03-01T15:10:37;11.23;;;4.72;;
75025;SDS011;63591;50.080;8.286;2023-03-01T15:13:14;9.38;;;4.47;;
75025;SDS011;63591;50.080;8.286;2023-03-01T15:15:47;11.00;;;5.00;;
75025;SDS011;63591;50.080;8.286;2023-03-01T15:20:44;11.90;;;4.95;;
75025;SDS011;63591;50.080;8.286;2023-03-01T15:23:18;9.48;;;4.32;;
75025;SDS011;63591;50.080;8.286;2023-03-01T15:25:47;9.73;;;4.63;;
75025;SDS011;63591;50.080;8.286;2023-03-01T15:28:21;11.85;;;4.80;;
75025;SDS011;63591;50.080;8.286;2023-03-01T15:30:51;7.97;;;4.32;;
75025;SDS011;63591;50.080;8.286;2023-03-01T15:33:27;8.50;;;4.55;;
75025;SDS011;63591;50.080;8.286;2023-03-01T15:35:55;8.07;;;4.15;;
75025;SDS011;63591;50.080;8.286;2023-03-01T15:40:57;8.98;;;4.40;;
75025;SDS011;63591;50.080;8.286;2023-03-01T15:43:46;9.02;;;3.90;;
75025;SDS011;63591;50.080;8.286;2023-03-01T15:52:05;7.82;;;4.10;;
75025;SDS011;63591;50.080;8.286;2023-03-01T15:54:42;8.17;;;4.27;;
75025;SDS011;63591;50.080;8.286;2023-03-01T15:57:12;7.95;;;4.20;;
75025;SDS011;63591;50.080;8.286;2023-03-01T15:59:39;9.40;;;4.20;;
75025;SDS011;63591;50.080;8.286;2023-03-01T16:02:08;8.57;;;4.30;;
75025;SDS011;63591;50.080;8.286;2023-03-01T16:04:35;9.40;;;4.25;;
75025;SDS011;63591;50.080;8.286;2023-03-01T16:07:01;9.87;;;4.80;;
75025;SDS011;63591;50.080;8.286;2023-03-01T16:09:26;8.68;;;4.45;;
75025;SDS011;63591;50.080;8.286;2023-03-01T16:11:52;8.13;;;4.47;;
75025;SDS011;63591;50.080;8.286;2023-03-01T16:14:18;8.85;;;4.10;;
75025;SDS011;63591;50.080;8.286;2023-03-01T16:16:44;9.77;;;4.13;;
75025;SDS011;63591;50.080;8.286;2023-03-01T16:19:11;10.63;;;4.30;;
75025;SDS011;63591;50.080;8.286;2023-03-01T16:21:36;8.27;;;3.93;;
75025;SDS011;63591;50.080;8.286;2023-03-01T16:24:02;10.40;;;4.07;;
75025;SDS011;63591;50.080;8.286;2023-03-01T16:26:28;9.00;;;3.90;;
75025;SDS011;63591;50.080;8.286;2023-03-01T16:28:54;8.90;;;4.00;;
75025;SDS011;63591;50.080;8.286;2023-03-01T16:31:21;10.48;;;4.10;;
75025;SDS011;63591;50.080;8.286;2023-03-01T16:33:47;9.45;;;4.00;;
75025;SDS011;63591;50.080;8.286;2023-03-01T16:36:15;8.35;;;3.83;;
75025;SDS011;63591;50.080;8.286;2023-03-01T16:38:43;11.88;;;4.18;;
75025;SDS011;63591;50.080;8.286;2023-03-01T16:41:12;8.10;;;3.57;;
75025;SDS011;63591;50.080;8.286;2023-03-01T16:43:38;9.25;;;3.88;;
75025;SDS011;63591;50.080;8.286;2023-03-01T16:46:11;6.75;;;3.60;;
75025;SDS011;63591;50.080;8.286;2023-03-01T16:48:39;9.05;;;3.60;;
75025;SDS011;63591;50.080;8.286;2023-03-01T16:51:05;8.60;;;4.23;;
75025;SDS011;63591;50.080;8.286;2023-03-01T16:53:32;8.25;;;4.10;;
75025;SDS011;63591;50.080;8.286;2023-03-01T16:55:58;10.80;;;4.20;;
75025;SDS011;63591;50.080;8.286;2023-03-01T16:58:24;10.18;;;4.60;;
75025;SDS011;63591;50.080;8.286;2023-03-01T17:00:50;9.02;;;4.38;;
75025;SDS011;63591;50.080;8.286;2023-03-01T17:03:18;9.48;;;4.50;;